sensor_id;sensor_type;location;lat;lon;timestamp;temperature;humidity
13817;DHT22;6979;52.116;5.286;2023-02-10T00:01:47;4.80;99.90
13817;DHT22;6979;52.116;5.286;2023-02-10T00:04:14;4.80;99.90
13817;DHT22;6979;52.116;5.286;2023-02-10T00:06:42;4.80;99.90
13817;DHT22;6979;52.116;5.286;2023-02-10T00:09:12;4.80;99.90
13817;DHT22;6979;52.116;5.286;2023-02-10T00:11:39;4.80;99.90
13817;DHT22;6979;52.116;5.286;2023-02-10T00:14:26;4.70;99.90
13817;DHT22;6979;52.116;5.286;2023-02-10T00:16:54;4.70;99.90
13817;DHT22;6979;52.116;5.286;2023-02-10T00:19:23;4.70;99.90
13817;DHT22;6979;52.116;5.286;2023-02-10T00:21:51;4.70;99.90
13817;DHT22;6979;52.116;5.286;2023-02-10T00:24:19;4.70;99.90
13817;DHT22;6979;52.116;5.286;2023-02-10T00:26:47;4.70;99.90
13817;DHT22;6979;52.116;5.286;2023-02-10T00:29:15;4.70;99.90
13817;DHT22;6979;52.116;5.286;2023-02-10T00:31:43;4.70;99.90
13817;DHT22;6979;52.116;5.286;2023-02-10T00:34:13;4.60;99.90
13817;DHT22;6979;52.116;5.286;2023-02-10T00:36:40;4.60;99.90
13817;DHT22;6979;52.116;5.286;2023-02-10T00:39:12;4.60;99.90
13817;DHT22;6979;52.116;5.286;2023-02-10T00:41:40;4.60;99.90
13817;DHT22;6979;52.116;5.286;2023-02-10T00:44:08;4.60;99.90
13817;DHT22;6979;52.116;5.286;2023-02-10T00:46:36;4.60;99.90
13817;DHT22;6979;52.116;5.286;2023-02-10T00:49:04;4.60;99.90
13817;DHT22;6979;52.116;5.286;2023-02-10T00:51:34;4.50;99.90
13817;DHT22;6979;52.116;5.286;2023-02-10T00:54:01;4.50;99.90
13817;DHT22;6979;52.116;5.286;2023-02-10T00:56:32;4.50;99.90
13817;DHT22;6979;52.116;5.286;2023-02-10T00:58:58;4.50;99.90
13817;DHT22;6979;52.116;5.286;2023-02-10T01:01:25;4.40;99.90
13817;DHT22;6979;52.116;5.286;2023-02-10T01:03:52;4.40;99.90
13817;DHT22;6979;52.116;5.286;2023-02-10T01:06:22;4.40;99.90
13817;DHT22;6979;52.116;5.286;2023-02-10T01:08:49;4.40;99.90
13817;DHT22;6979;52.116;5.286;2023-02-10T01:11:16;4.40;99.90
13817;DHT22;6979;52.116;5.286;2023-02-10T01:13:47;4.40;99.90
13817;DHT22;6979;52.116;5.286;2023-02-10T01:16:15;4.40;99.90
13817;DHT22;6979;52.116;5.286;2023-02-10T01:18:43;4.30;99.90
13817;DHT22;6979;52.116;5.286;2023-02-10T01:21:11;4.30;99.90
13817;DHT22;6979;52.116;5.286;2023-02-10T01:23:38;4.30;99.90
13817;DHT22;6979;52.116;5.286;2023-02-10T01:26:05;4.30;99.90
13817;DHT22;6979;52.116;5.286;2023-02-10T01:28:32;4.20;99.90
13817;DHT22;6979;52.116;5.286;2023-02-10T01:31:09;4.30;99.90
13817;DHT22;6979;52.116;5.286;2023-02-10T01:33:36;4.20;99.90
13817;DHT22;6979;52.116;5.286;2023-02-10T01:36:05;4.20;99.90
13817;DHT22;6979;52.116;5.286;2023-02-10T01:38:32;4.20;99.90
13817;DHT22;6979;52.116;5.286;2023-02-10T01:40:59;4.20;99.90
13817;DHT22;6979;52.116;5.286;2023-02-10T01:43:26;4.20;99.90
13817;DHT22;6979;52.116;5.286;2023-02-10T01:45:53;4.20;99.90
13817;DHT22;6979;52.116;5.286;2023-02-10T01:48:23;4.20;99.90
13817;DHT22;6979;52.116;5.286;2023-02-10T01:50:53;4.20;99.90
13817;DHT22;6979;52.116;5.286;2023-02-10T01:53:21;4.20;99.90
13817;DHT22;6979;52.116;5.286;2023-02-10T01:55:52;4.20;99.90
13817;DHT22;6979;52.116;5.286;2023-02-10T01:58:24;4.20;99.90
13817;DHT22;6979;52.116;5.286;2023-02-10T02:00:51;4.10;99.90
13817;DHT22;6979;52.116;5.286;2023-02-10T02:03:18;4.20;99.90
13817;DHT22;6979;52.116;5.286;2023-02-10T02:05:47;4.10;99.90
13817;DHT22;6979;52.116;5.286;2023-02-10T02:08:17;4.10;99.90
13817;DHT22;6979;52.116;5.286;2023-02-10T02:10:58;4.10;99.90
13817;DHT22;6979;52.116;5.286;2023-02-10T02:13:42;4.10;99.90
13817;DHT22;6979;52.116;5.286;2023-02-10T02:16:20;4.10;99.90
13817;DHT22;6979;52.116;5.286;2023-02-10T02:18:56;4.10;99.90
13817;DHT22;6979;52.116;5.286;2023-02-10T02:21:45;4.10;99.90
13817;DHT22;6979;52.116;5.286;2023-02-10T02:24:38;4.10;99.90
13817;DHT22;6979;52.116;5.286;2023-02-10T02:27:21;4.10;99.90
13817;DHT22;6979;52.116;5.286;2023-02-10T02:30:03;4.10;99.90
13817;DHT22;6979;52.116;5.286;2023-02-10T02:32:40;4.10;99.90
13817;DHT22;6979;52.116;5.286;2023-02-10T02:35:14;4.10;99.90
13817;DHT22;6979;52.116;5.286;2023-02-10T02:37:42;4.10;99.90
13817;DHT22;6979;52.116;5.286;2023-02-10T02:40:11;4.10;99.90
13817;DHT22;6979;52.116;5.286;2023-02-10T02:42:39;4.10;99.90
13817;DHT22;6979;52.116;5.286;2023-02-10T02:45:09;4.10;99.90
13817;DHT22;6979;52.116;5.286;2023-02-10T02:47:56;4.10;99.90
13817;DHT22;6979;52.116;5.286;2023-02-10T02:50:28;4.10;99.90
13817;DHT22;6979;52.116;5.286;2023-02-10T02:53:20;4.10;99.90
13817;DHT22;6979;52.116;5.286;2023-02-10T02:56:02;4.10;99.90
13817;DHT22;6979;52.116;5.286;2023-02-10T02:58:35;4.10;99.90
13817;DHT22;6979;52.116;5.286;2023-02-10T03:01:11;4.10;99.90
13817;DHT22;6979;52.116;5.286;2023-02-10T03:03:41;4.10;99.90
13817;DHT22;6979;52.116;5.286;2023-02-10T03:06:08;4.00;99.90
13817;DHT22;6979;52.116;5.286;2023-02-10T03:08:38;4.10;99.90
13817;DHT22;6979;52.116;5.286;2023-02-10T03:11:06;4.00;99.90
13817;DHT22;6979;52.116;5.286;2023-02-10T03:13:33;4.00;99.90
13817;DHT22;6979;52.116;5.286;2023-02-10T03:16:00;4.00;99.90
13817;DHT22;6979;52.116;5.286;2023-02-10T03:18:29;4.00;99.90
13817;DHT22;6979;52.116;5.286;2023-02-10T03:21:08;4.00;99.90
13817;DHT22;6979;52.116;5.286;2023-02-10T03:23:35;4.00;99.90
13817;DHT22;6979;52.116;5.286;2023-02-10T03:26:02;4.00;99.90
13817;DHT22;6979;52.116;5.286;2023-02-10T03:28:29;4.00;99.90
13817;DHT22;6979;52.116;5.286;2023-02-10T03:30:56;4.00;99.90
13817;DHT22;6979;52.116;5.286;2023-02-10T03:33:23;4.00;99.90
13817;DHT22;6979;52.116;5.286;2023-02-10T03:35:50;4.00;99.90
13817;DHT22;6979;52.116;5.286;2023-02-10T03:38:19;4.00;99.90
13817;DHT22;6979;52.116;5.286;2023-02-10T03:40:49;4.00;99.90
13817;DHT22;6979;52.116;5.286;2023-02-10T03:43:16;4.00;99.90
13817;DHT22;6979;52.116;5.286;2023-02-10T03:45:44;4.00;99.90
13817;DHT22;6979;52.116;5.286;2023-02-10T03:48:11;4.00;99.90
13817;DHT22;6979;52.116;5.286;2023-02-10T03:50:39;4.00;99.90
13817;DHT22;6979;52.116;5.286;2023-02-10T03:53:06;4.10;99.90
13817;DHT22;6979;52.116;5.286;2023-02-10T03:55:34;4.10;99.90
13817;DHT22;6979;52.116;5.286;2023-02-10T03:58:01;4.10;99.90
13817;DHT22;6979;52.116;5.286;2023-02-10T04:00:28;4.10;99.90
13817;DHT22;6979;52.116;5.286;2023-02-10T04:02:55;4.10;99.90
13817;DHT22;6979;52.116;5.286;2023-02-10T04:05:22;4.10;99.90
13817;DHT22;6979;52.116;5.286;2023-02-10T04:07:49;4.10;99.90
13817;DHT22;6979;52.116;5.286;2023-02-10T04:10:19;4.20;99.90
13817;DHT22;6979;52.116;5.286;2023-02-10T04:12:48;4.20;99.90
13817;DHT22;6979;52.116;5.286;2023-02-10T04:15:15;4.20;99.90
13817;DHT22;6979;52.116;5.286;2023-02-10T04:17:42;4.20;99.90
13817;DHT22;6979;52.116;5.286;2023-02-10T04:20:09;4.20;99.90
13817;DHT22;6979;52.116;5.286;2023-02-10T04:22:36;4.30;99.90
13817;DHT22;6979;52.116;5.286;2023-02-10T04:25:04;4.30;99.90
13817;DHT22;6979;52.116;5.286;2023-02-10T04:27:31;4.30;99.90
13817;DHT22;6979;52.116;5.286;2023-02-10T04:29:59;4.30;99.90
13817;DHT22;6979;52.116;5.286;2023-02-10T04:32:26;4.40;99.90
13817;DHT22;6979;52.116;5.286;2023-02-10T04:34:53;4.40;99.90
13817;DHT22;6979;52.116;5.286;2023-02-10T04:37:20;4.40;99.90
13817;DHT22;6979;52.116;5.286;2023-02-10T04:39:47;4.40;99.90
13817;DHT22;6979;52.116;5.286;2023-02-10T04:42:14;4.40;99.90
13817;DHT22;6979;52.116;5.286;2023-02-10T04:44:40;4.40;99.90
13817;DHT22;6979;52.116;5.286;2023-02-10T04:47:11;4.40;99.90
13817;DHT22;6979;52.116;5.286;2023-02-10T04:49:38;4.40;99.90
13817;DHT22;6979;52.116;5.286;2023-02-10T04:52:05;4.40;99.90
13817;DHT22;6979;52.116;5.286;2023-02-10T04:54:32;4.40;99.90
13817;DHT22;6979;52.116;5.286;2023-02-10T04:56:59;4.40;99.90
13817;DHT22;6979;52.116;5.286;2023-02-10T04:59:25;4.40;99.90
13817;DHT22;6979;52.116;5.286;2023-02-10T05:01:52;4.40;99.90
13817;DHT22;6979;52.116;5.286;2023-02-10T05:04:20;4.40;99.90
13817;DHT22;6979;52.116;5.286;2023-02-10T05:06:47;4.40;99.90
13817;DHT22;6979;52.116;5.286;2023-02-10T05:09:14;4.40;99.90
13817;DHT22;6979;52.116;5.286;2023-02-10T05:11:41;4.40;99.90
13817;DHT22;6979;52.116;5.286;2023-02-10T05:14:09;4.40;99.90
13817;DHT22;6979;52.116;5.286;2023-02-10T05:16:38;4.40;99.90
13817;DHT22;6979;52.116;5.286;2023-02-10T05:19:07;4.40;99.90
13817;DHT22;6979;52.116;5.286;2023-02-10T05:21:36;4.40;99.90
13817;DHT22;6979;52.116;5.286;2023-02-10T05:24:03;4.40;99.90
13817;DHT22;6979;52.116;5.286;2023-02-10T05:26:30;4.40;99.90
13817;DHT22;6979;52.116;5.286;2023-02-10T05:28:57;4.40;99.90
13817;DHT22;6979;52.116;5.286;2023-02-10T05:31:23;4.40;99.90
13817;DHT22;6979;52.116;5.286;2023-02-10T05:33:51;4.40;99.90
13817;DHT22;6979;52.116;5.286;2023-02-10T05:36:19;4.40;99.90
13817;DHT22;6979;52.116;5.286;2023-02-10T05:38:47;4.40;99.90
13817;DHT22;6979;52.116;5.286;2023-02-10T05:41:28;4.40;99.90
13817;DHT22;6979;52.116;5.286;2023-02-10T05:43:55;4.40;99.90
13817;DHT22;6979;52.116;5.286;2023-02-10T05:46:22;4.40;99.90
13817;DHT22;6979;52.116;5.286;2023-02-10T05:48:49;4.40;99.90
13817;DHT22;6979;52.116;5.286;2023-02-10T05:51:16;4.50;99.90
13817;DHT22;6979;52.116;5.286;2023-02-10T05:53:42;4.40;99.90
13817;DHT22;6979;52.116;5.286;2023-02-10T05:56:11;4.40;99.90
13817;DHT22;6979;52.116;5.286;2023-02-10T05:58:38;4.40;99.90
13817;DHT22;6979;52.116;5.286;2023-02-10T06:01:06;4.40;99.90
13817;DHT22;6979;52.116;5.286;2023-02-10T06:03:33;4.40;99.90
13817;DHT22;6979;52.116;5.286;2023-02-10T06:06:00;4.40;99.90
13817;DHT22;6979;52.116;5.286;2023-02-10T06:08:27;4.40;99.90
13817;DHT22;6979;52.116;5.286;2023-02-10T06:10:54;4.40;99.90
13817;DHT22;6979;52.116;5.286;2023-02-10T06:13:22;4.50;99.90
13817;DHT22;6979;52.116;5.286;2023-02-10T06:15:49;4.40;99.90
13817;DHT22;6979;52.116;5.286;2023-02-10T06:18:17;4.50;99.90
13817;DHT22;6979;52.116;5.286;2023-02-10T06:20:45;4.50;99.90
13817;DHT22;6979;52.116;5.286;2023-02-10T06:23:12;4.50;99.90
13817;DHT22;6979;52.116;5.286;2023-02-10T06:25:39;4.60;99.90
13817;DHT22;6979;52.116;5.286;2023-02-10T06:28:06;4.60;99.90
13817;DHT22;6979;52.116;5.286;2023-02-10T06:30:34;4.70;99.90
13817;DHT22;6979;52.116;5.286;2023-02-10T06:33:02;4.70;99.90
13817;DHT22;6979;52.116;5.286;2023-02-10T06:35:31;4.70;99.90
13817;DHT22;6979;52.116;5.286;2023-02-10T06:37:58;4.70;99.90
13817;DHT22;6979;52.116;5.286;2023-02-10T06:40:25;4.70;99.90
13817;DHT22;6979;52.116;5.286;2023-02-10T06:42:52;4.80;99.90
13817;DHT22;6979;52.116;5.286;2023-02-10T06:45:18;4.80;99.90
13817;DHT22;6979;52.116;5.286;2023-02-10T06:47:46;4.80;99.90
13817;DHT22;6979;52.116;5.286;2023-02-10T06:50:14;4.80;99.90
13817;DHT22;6979;52.116;5.286;2023-02-10T06:52:43;4.80;99.90
13817;DHT22;6979;52.116;5.286;2023-02-10T06:55:10;4.80;99.90
13817;DHT22;6979;52.116;5.286;2023-02-10T06:57:42;4.90;99.90
13817;DHT22;6979;52.116;5.286;2023-02-10T07:00:14;4.90;99.90
13817;DHT22;6979;52.116;5.286;2023-02-10T07:02:41;5.00;99.90
13817;DHT22;6979;52.116;5.286;2023-02-10T07:05:11;5.00;99.90
13817;DHT22;6979;52.116;5.286;2023-02-10T07:07:38;5.00;99.90
13817;DHT22;6979;52.116;5.286;2023-02-10T07:10:06;5.00;99.90
13817;DHT22;6979;52.116;5.286;2023-02-10T07:12:33;5.00;99.90
13817;DHT22;6979;52.116;5.286;2023-02-10T07:15:01;5.00;99.90
13817;DHT22;6979;52.116;5.286;2023-02-10T07:17:27;5.00;99.90
13817;DHT22;6979;52.116;5.286;2023-02-10T07:19:54;5.00;99.90
13817;DHT22;6979;52.116;5.286;2023-02-10T07:22:23;5.00;99.90
13817;DHT22;6979;52.116;5.286;2023-02-10T07:24:49;5.00;99.90
13817;DHT22;6979;52.116;5.286;2023-02-10T07:27:16;5.00;99.90
13817;DHT22;6979;52.116;5.286;2023-02-10T07:29:43;5.00;99.90
13817;DHT22;6979;52.116;5.286;2023-02-10T07:32:10;5.00;99.90
13817;DHT22;6979;52.116;5.286;2023-02-10T07:34:40;5.00;99.90
13817;DHT22;6979;52.116;5.286;2023-02-10T07:37:10;5.00;99.90
13817;DHT22;6979;52.116;5.286;2023-02-10T07:39:38;5.00;99.90
13817;DHT22;6979;52.116;5.286;2023-02-10T07:42:05;5.00;99.90
13817;DHT22;6979;52.116;5.286;2023-02-10T07:44:51;5.00;99.90
13817;DHT22;6979;52.116;5.286;2023-02-10T07:47:17;5.00;99.90
13817;DHT22;6979;52.116;5.286;2023-02-10T07:49:44;5.00;99.90
13817;DHT22;6979;52.116;5.286;2023-02-10T07:52:11;5.00;99.90
13817;DHT22;6979;52.116;5.286;2023-02-10T07:54:39;5.00;99.90
13817;DHT22;6979;52.116;5.286;2023-02-10T07:57:06;5.00;99.90
13817;DHT22;6979;52.116;5.286;2023-02-10T07:59:33;5.00;99.90
13817;DHT22;6979;52.116;5.286;2023-02-10T08:02:00;5.00;99.90
13817;DHT22;6979;52.116;5.286;2023-02-10T08:04:27;5.00;99.90
13817;DHT22;6979;52.116;5.286;2023-02-10T08:06:56;5.00;99.90
13817;DHT22;6979;52.116;5.286;2023-02-10T08:09:23;5.00;99.90
13817;DHT22;6979;52.116;5.286;2023-02-10T08:11:57;5.00;99.90
13817;DHT22;6979;52.116;5.286;2023-02-10T08:14:24;5.00;99.90
13817;DHT22;6979;52.116;5.286;2023-02-10T08:16:51;5.00;99.90
13817;DHT22;6979;52.116;5.286;2023-02-10T08:19:18;5.00;99.90
13817;DHT22;6979;52.116;5.286;2023-02-10T08:21:45;5.10;99.90
13817;DHT22;6979;52.116;5.286;2023-02-10T08:24:12;5.10;99.90
13817;DHT22;6979;52.116;5.286;2023-02-10T08:26:39;5.10;99.90
13817;DHT22;6979;52.116;5.286;2023-02-10T08:29:17;5.10;99.90
13817;DHT22;6979;52.116;5.286;2023-02-10T08:31:43;5.10;99.90
13817;DHT22;6979;52.116;5.286;2023-02-10T08:34:15;5.10;99.90
13817;DHT22;6979;52.116;5.286;2023-02-10T08:36:42;5.10;99.90
13817;DHT22;6979;52.116;5.286;2023-02-10T08:39:09;5.20;99.90
13817;DHT22;6979;52.116;5.286;2023-02-10T08:41:37;5.20;99.90
13817;DHT22;6979;52.116;5.286;2023-02-10T08:44:06;5.20;99.90
13817;DHT22;6979;52.116;5.286;2023-02-10T08:46:35;5.30;99.90
13817;DHT22;6979;52.116;5.286;2023-02-10T08:49:01;5.30;99.90
13817;DHT22;6979;52.116;5.286;2023-02-10T08:51:28;5.30;99.90
13817;DHT22;6979;52.116;5.286;2023-02-10T08:53:57;5.30;99.90
13817;DHT22;6979;52.116;5.286;2023-02-10T08:56:26;5.40;99.90
13817;DHT22;6979;52.116;5.286;2023-02-10T08:58:53;5.40;99.90
13817;DHT22;6979;52.116;5.286;2023-02-10T09:01:22;5.50;99.90
13817;DHT22;6979;52.116;5.286;2023-02-10T09:03:52;5.50;99.90
13817;DHT22;6979;52.116;5.286;2023-02-10T09:06:21;5.60;99.90
13817;DHT22;6979;52.116;5.286;2023-02-10T09:08:49;5.60;99.90
13817;DHT22;6979;52.116;5.286;2023-02-10T09:11:20;5.60;99.90
13817;DHT22;6979;52.116;5.286;2023-02-10T09:13:49;5.70;99.90
13817;DHT22;6979;52.116;5.286;2023-02-10T09:16:18;5.80;99.90
13817;DHT22;6979;52.116;5.286;2023-02-10T09:18:45;5.80;99.90
13817;DHT22;6979;52.116;5.286;2023-02-10T09:21:16;5.90;99.90
13817;DHT22;6979;52.116;5.286;2023-02-10T09:23:43;5.90;99.90
13817;DHT22;6979;52.116;5.286;2023-02-10T09:26:10;6.00;99.90
13817;DHT22;6979;52.116;5.286;2023-02-10T09:28:38;6.10;99.90
13817;DHT22;6979;52.116;5.286;2023-02-10T09:31:06;6.20;99.90
13817;DHT22;6979;52.116;5.286;2023-02-10T09:33:34;6.20;99.90
13817;DHT22;6979;52.116;5.286;2023-02-10T09:36:02;6.30;99.90
13817;DHT22;6979;52.116;5.286;2023-02-10T09:38:30;6.40;99.90
13817;DHT22;6979;52.116;5.286;2023-02-10T09:41:05;6.60;99.90
13817;DHT22;6979;52.116;5.286;2023-02-10T09:44:03;6.70;99.90
13817;DHT22;6979;52.116;5.286;2023-02-10T09:46:45;7.00;99.90
13817;DHT22;6979;52.116;5.286;2023-02-10T09:49:23;7.30;99.90
13817;DHT22;6979;52.116;5.286;2023-02-10T09:52:02;7.60;99.90
13817;DHT22;6979;52.116;5.286;2023-02-10T09:54:33;7.90;99.90
13817;DHT22;6979;52.116;5.286;2023-02-10T09:57:02;8.20;99.90
13817;DHT22;6979;52.116;5.286;2023-02-10T09:59:31;8.60;99.90
13817;DHT22;6979;52.116;5.286;2023-02-10T10:02:03;9.00;99.90
13817;DHT22;6979;52.116;5.286;2023-02-10T10:04:35;9.40;99.90
13817;DHT22;6979;52.116;5.286;2023-02-10T10:07:13;9.70;99.90
13817;DHT22;6979;52.116;5.286;2023-02-10T10:09:45;10.10;99.90
13817;DHT22;6979;52.116;5.286;2023-02-10T10:12:16;10.50;99.90
13817;DHT22;6979;52.116;5.286;2023-02-10T10:14:44;10.80;99.90
13817;DHT22;6979;52.116;5.286;2023-02-10T10:17:35;11.20;99.90
13817;DHT22;6979;52.116;5.286;2023-02-10T10:23:07;11.90;99.90
13817;DHT22;6979;52.116;5.286;2023-02-10T10:25:56;12.20;99.90
13817;DHT22;6979;52.116;5.286;2023-02-10T10:28:40;12.60;99.90
13817;DHT22;6979;52.116;5.286;2023-02-10T10:31:14;12.80;99.90
13817;DHT22;6979;52.116;5.286;2023-02-10T10:33:51;13.20;99.90
13817;DHT22;6979;52.116;5.286;2023-02-10T10:36:21;13.50;99.90
13817;DHT22;6979;52.116;5.286;2023-02-10T10:38:51;13.70;99.90
13817;DHT22;6979;52.116;5.286;2023-02-10T10:41:23;14.00;99.90
13817;DHT22;6979;52.116;5.286;2023-02-10T10:43:52;14.30;99.90
13817;DHT22;6979;52.116;5.286;2023-02-10T10:46:26;14.60;99.90
13817;DHT22;6979;52.116;5.286;2023-02-10T10:48:54;14.90;99.90
13817;DHT22;6979;52.116;5.286;2023-02-10T10:51:22;15.20;99.90
13817;DHT22;6979;52.116;5.286;2023-02-10T10:53:50;15.50;99.90
13817;DHT22;6979;52.116;5.286;2023-02-10T10:56:26;15.80;99.90
13817;DHT22;6979;52.116;5.286;2023-02-10T10:58:56;16.00;99.90
13817;DHT22;6979;52.116;5.286;2023-02-10T11:01:33;16.20;99.90
13817;DHT22;6979;52.116;5.286;2023-02-10T11:04:09;16.30;99.90
13817;DHT22;6979;52.116;5.286;2023-02-10T11:06:37;16.30;99.90
13817;DHT22;6979;52.116;5.286;2023-02-10T11:09:06;16.30;99.90
13817;DHT22;6979;52.116;5.286;2023-02-10T11:11:45;16.30;99.90
13817;DHT22;6979;52.116;5.286;2023-02-10T11:14:14;16.20;99.90
13817;DHT22;6979;52.116;5.286;2023-02-10T11:16:47;16.20;99.90
13817;DHT22;6979;52.116;5.286;2023-02-10T11:19:23;16.20;99.90
13817;DHT22;6979;52.116;5.286;2023-02-10T11:21:50;16.20;99.90
13817;DHT22;6979;52.116;5.286;2023-02-10T11:24:21;16.10;99.90
13817;DHT22;6979;52.116;5.286;2023-02-10T11:26:57;16.20;99.90
13817;DHT22;6979;52.116;5.286;2023-02-10T11:29:25;16.20;99.90
13817;DHT22;6979;52.116;5.286;2023-02-10T11:31:53;16.20;99.90
13817;DHT22;6979;52.116;5.286;2023-02-10T11:34:25;16.30;99.90
13817;DHT22;6979;52.116;5.286;2023-02-10T11:36:53;16.30;99.90
13817;DHT22;6979;52.116;5.286;2023-02-10T11:39:23;16.30;99.90
13817;DHT22;6979;52.116;5.286;2023-02-10T11:41:52;16.20;99.90
13817;DHT22;6979;52.116;5.286;2023-02-10T11:44:27;16.20;99.90
13817;DHT22;6979;52.116;5.286;2023-02-10T11:46:58;16.00;99.90
13817;DHT22;6979;52.116;5.286;2023-02-10T11:49:34;16.00;99.90
13817;DHT22;6979;52.116;5.286;2023-02-10T11:52:03;15.90;99.90
13817;DHT22;6979;52.116;5.286;2023-02-10T11:54:31;15.70;99.90
13817;DHT22;6979;52.116;5.286;2023-02-10T11:57:09;15.60;99.90
13817;DHT22;6979;52.116;5.286;2023-02-10T12:00:04;15.50;99.90
13817;DHT22;6979;52.116;5.286;2023-02-10T12:05:35;15.30;99.90
13817;DHT22;6979;52.116;5.286;2023-02-10T12:08:15;15.20;99.90
13817;DHT22;6979;52.116;5.286;2023-02-10T12:10:53;15.20;99.90
13817;DHT22;6979;52.116;5.286;2023-02-10T12:13:29;15.20;99.90
13817;DHT22;6979;52.116;5.286;2023-02-10T12:16:12;15.20;99.90
13817;DHT22;6979;52.116;5.286;2023-02-10T12:18:53;15.20;99.90
13817;DHT22;6979;52.116;5.286;2023-02-10T12:21:42;15.30;99.90
13817;DHT22;6979;52.116;5.286;2023-02-10T12:24:22;15.30;99.90
13817;DHT22;6979;52.116;5.286;2023-02-10T12:26:55;15.30;99.90
13817;DHT22;6979;52.116;5.286;2023-02-10T12:29:32;15.30;99.90
13817;DHT22;6979;52.116;5.286;2023-02-10T12:32:12;15.30;99.90
13817;DHT22;6979;52.116;5.286;2023-02-10T12:34:53;15.30;99.90
13817;DHT22;6979;52.116;5.286;2023-02-10T12:37:30;15.40;99.90
13817;DHT22;6979;52.116;5.286;2023-02-10T12:40:13;15.50;99.90
13817;DHT22;6979;52.116;5.286;2023-02-10T12:42:48;15.50;99.90
13817;DHT22;6979;52.116;5.286;2023-02-10T12:45:26;15.50;99.90
13817;DHT22;6979;52.116;5.286;2023-02-10T12:48:04;15.50;99.90
13817;DHT22;6979;52.116;5.286;2023-02-10T12:51:01;15.40;99.90
13817;DHT22;6979;52.116;5.286;2023-02-10T12:53:35;15.30;99.90
13817;DHT22;6979;52.116;5.286;2023-02-10T12:56:07;15.20;99.90
13817;DHT22;6979;52.116;5.286;2023-02-10T12:58:40;15.20;99.90
13817;DHT22;6979;52.116;5.286;2023-02-10T13:01:13;15.20;99.90
13817;DHT22;6979;52.116;5.286;2023-02-10T13:03:47;15.20;99.90
13817;DHT22;6979;52.116;5.286;2023-02-10T13:06:25;15.20;99.90
13817;DHT22;6979;52.116;5.286;2023-02-10T13:08:58;15.20;99.90
13817;DHT22;6979;52.116;5.286;2023-02-10T13:11:34;15.20;99.90
13817;DHT22;6979;52.116;5.286;2023-02-10T13:14:08;15.10;99.90
13817;DHT22;6979;52.116;5.286;2023-02-10T13:16:37;15.00;99.90
13817;DHT22;6979;52.116;5.286;2023-02-10T13:19:14;14.80;99.90
13817;DHT22;6979;52.116;5.286;2023-02-10T13:21:57;14.80;99.90
13817;DHT22;6979;52.116;5.286;2023-02-10T13:24:30;14.70;99.90
13817;DHT22;6979;52.116;5.286;2023-02-10T13:27:04;14.60;99.90
13817;DHT22;6979;52.116;5.286;2023-02-10T13:29:42;14.60;99.90
13817;DHT22;6979;52.116;5.286;2023-02-10T13:32:25;14.60;99.90
13817;DHT22;6979;52.116;5.286;2023-02-10T13:34:56;14.50;99.90
13817;DHT22;6979;52.116;5.286;2023-02-10T13:37:37;14.50;99.90
13817;DHT22;6979;52.116;5.286;2023-02-10T13:40:15;14.50;99.90
13817;DHT22;6979;52.116;5.286;2023-02-10T13:42:48;14.60;99.90
13817;DHT22;6979;52.116;5.286;2023-02-10T13:45:17;14.70;99.90
13817;DHT22;6979;52.116;5.286;2023-02-10T13:47:50;14.70;99.90
13817;DHT22;6979;52.116;5.286;2023-02-10T13:50:22;14.80;99.90
13817;DHT22;6979;52.116;5.286;2023-02-10T13:52:52;14.70;99.90
13817;DHT22;6979;52.116;5.286;2023-02-10T13:55:38;14.60;99.90
13817;DHT22;6979;52.116;5.286;2023-02-10T13:58:32;14.50;99.90
13817;DHT22;6979;52.116;5.286;2023-02-10T14:01:27;14.40;99.90
13817;DHT22;6979;52.116;5.286;2023-02-10T14:03:54;14.30;99.90
13817;DHT22;6979;52.116;5.286;2023-02-10T14:06:34;14.30;99.90
13817;DHT22;6979;52.116;5.286;2023-02-10T14:09:05;14.20;99.90
13817;DHT22;6979;52.116;5.286;2023-02-10T14:11:41;14.20;99.90
13817;DHT22;6979;52.116;5.286;2023-02-10T14:14:24;14.20;99.90
13817;DHT22;6979;52.116;5.286;2023-02-10T14:17:03;14.20;99.90
13817;DHT22;6979;52.116;5.286;2023-02-10T14:19:32;14.30;99.90
13817;DHT22;6979;52.116;5.286;2023-02-10T14:22:04;14.30;99.90
13817;DHT22;6979;52.116;5.286;2023-02-10T14:24:34;14.30;99.90
13817;DHT22;6979;52.116;5.286;2023-02-10T14:27:05;14.30;99.90
13817;DHT22;6979;52.116;5.286;2023-02-10T14:29:33;14.30;99.90
13817;DHT22;6979;52.116;5.286;2023-02-10T14:32:03;14.20;99.90
13817;DHT22;6979;52.116;5.286;2023-02-10T14:34:34;14.20;99.90
13817;DHT22;6979;52.116;5.286;2023-02-10T14:37:14;14.20;99.90
13817;DHT22;6979;52.116;5.286;2023-02-10T14:39:50;14.20;99.90
13817;DHT22;6979;52.116;5.286;2023-02-10T14:42:20;14.10;99.90
13817;DHT22;6979;52.116;5.286;2023-02-10T14:44:49;14.10;99.90
13817;DHT22;6979;52.116;5.286;2023-02-10T14:47:18;14.10;99.90
13817;DHT22;6979;52.116;5.286;2023-02-10T14:49:48;14.00;99.90
13817;DHT22;6979;52.116;5.286;2023-02-10T14:52:24;13.90;99.90
13817;DHT22;6979;52.116;5.286;2023-02-10T14:54:51;13.80;99.90
13817;DHT22;6979;52.116;5.286;2023-02-10T14:57:20;13.80;99.90
13817;DHT22;6979;52.116;5.286;2023-02-10T14:59:52;13.60;99.90
13817;DHT22;6979;52.116;5.286;2023-02-10T15:02:24;13.50;99.90
13817;DHT22;6979;52.116;5.286;2023-02-10T15:04:54;13.40;99.90
13817;DHT22;6979;52.116;5.286;2023-02-10T15:07:27;13.30;99.90
13817;DHT22;6979;52.116;5.286;2023-02-10T15:09:55;13.30;99.90
13817;DHT22;6979;52.116;5.286;2023-02-10T15:12:26;13.20;99.90
13817;DHT22;6979;52.116;5.286;2023-02-10T15:15:00;13.10;99.90
13817;DHT22;6979;52.116;5.286;2023-02-10T15:17:34;13.00;99.90
13817;DHT22;6979;52.116;5.286;2023-02-10T15:20:22;12.90;99.90
13817;DHT22;6979;52.116;5.286;2023-02-10T15:23:05;12.80;99.90
13817;DHT22;6979;52.116;5.286;2023-02-10T15:25:35;12.70;99.90
13817;DHT22;6979;52.116;5.286;2023-02-10T15:28:24;12.60;99.90
13817;DHT22;6979;52.116;5.286;2023-02-10T15:30:58;12.50;99.90
13817;DHT22;6979;52.116;5.286;2023-02-10T15:33:28;12.50;99.90
13817;DHT22;6979;52.116;5.286;2023-02-10T15:36:08;12.40;99.90
13817;DHT22;6979;52.116;5.286;2023-02-10T15:38:45;12.30;99.90
13817;DHT22;6979;52.116;5.286;2023-02-10T15:41:30;12.30;99.90
13817;DHT22;6979;52.116;5.286;2023-02-10T15:44:01;12.20;99.90
13817;DHT22;6979;52.116;5.286;2023-02-10T15:46:30;12.10;99.90
13817;DHT22;6979;52.116;5.286;2023-02-10T15:49:08;12.10;99.90
13817;DHT22;6979;52.116;5.286;2023-02-10T15:51:39;12.10;99.90
13817;DHT22;6979;52.116;5.286;2023-02-10T15:54:12;12.00;99.90
13817;DHT22;6979;52.116;5.286;2023-02-10T15:56:39;12.00;99.90
13817;DHT22;6979;52.116;5.286;2023-02-10T15:59:13;12.00;99.90
13817;DHT22;6979;52.116;5.286;2023-02-10T16:01:40;11.90;99.90
13817;DHT22;6979;52.116;5.286;2023-02-10T16:04:16;11.90;99.90
13817;DHT22;6979;52.116;5.286;2023-02-10T16:06:43;11.90;99.90
13817;DHT22;6979;52.116;5.286;2023-02-10T16:09:12;11.90;99.90
13817;DHT22;6979;52.116;5.286;2023-02-10T16:11:39;11.80;99.90
13817;DHT22;6979;52.116;5.286;2023-02-10T16:14:06;11.80;99.90
13817;DHT22;6979;52.116;5.286;2023-02-10T16:16:33;11.80;99.90
13817;DHT22;6979;52.116;5.286;2023-02-10T16:19:03;11.80;99.90
13817;DHT22;6979;52.116;5.286;2023-02-10T16:21:32;11.80;99.90
13817;DHT22;6979;52.116;5.286;2023-02-10T16:24:05;11.70;99.90
13817;DHT22;6979;52.116;5.286;2023-02-10T16:26:34;11.70;99.90